• Join FlightAware (Why Join?)
  • Login
  • US Flag 
03:03AM EDT


 

Airport Tracker/Info


-or-


 

Live Flight TrackerFlight Track Log ✈ SKW4473 ✈ 03-May-2013 ✈ KSLC - KHLN

Flight Track Log - Related Links

Times and Time Zones

All times are in EDT time to prevent confusion due to time zone crossing. See the SKW4473 flight status page for this flight to view local times or setup timezone preferences in your user account.

Time Position Orientation Groundspeed Altitude Reporting Facility
EDT Latitude Longitude Course Direction KTS MPH feet Rate Location/Type
01:26PM 40.7758 -111.9983 50° Northeast 162 186 5,000  Level Salt Lake Center
01:27PM 40.7706 -111.9964 164° South 154 177 5,300 1,800 Climbing Salt Lake Center
01:28PM 40.7589 -112.0767 259° West 231 266 7,400 2,100 Climbing Salt Lake Center
01:29PM 40.9741 -112.2333 North  Level FlightAware Approximate
01:29PM 40.8139 -112.1422 318° Northwest 265 305 9,700  Level Salt Lake Center
01:30PM 41.0160 -112.1056 81° East  Level FlightAware Approximate
01:30PM 40.8686 -112.2103 317° Northwest 269 310 12,700  Level Salt Lake Center
01:31PM 41.0955 -111.9976 50° Northeast  Level FlightAware Approximate
01:31PM 40.9453 -112.2375 345° North 297 342 14,700  Level Salt Lake Center
01:32PM 41.1753 -111.8722 50° Northeast  Level FlightAware Approximate
01:32PM 41.0167 -112.1892 27° Northeast 321 369 16,800  Level Salt Lake Center
01:33PM 41.0486 -112.0736 70° East 340 391 18,500 1,620 Climbing Salt Lake Center
01:34PM 41.1142 -111.9789 47° Northeast 347 399 20,200 1,500 Climbing Salt Lake Center
01:35PM 41.1814 -111.8786 48° Northeast 356 410 21,600 1,380 Climbing Salt Lake Center
01:36PM 41.2644 -111.7986 36° Northeast 367 422 23,100 1,260 Climbing Salt Lake Center
01:37PM 41.3547 -111.7331 29° Northeast 369 425 24,300 1,200 Climbing Salt Lake Center
01:38PM 41.4739 -111.6775 19° North 377 434 25,600 1,260 Climbing Salt Lake Center
01:39PM 41.5781 -111.6358 17° North 389 448 26,900 1,080 Climbing Salt Lake Center
01:40PM 41.6808 -111.5947 17° North 386 444 27,900 900 Climbing Salt Lake Center
01:41PM 41.7861 -111.5539 16° North 394 453 28,800 720 Climbing Salt Lake Center
01:42PM 41.8942 -111.5258 11° North 397 457 29,500 660 Climbing Salt Lake Center
01:43PM 42.0056 -111.5025 North 404 465 30,200 720 Climbing Salt Lake Center
01:44PM 42.1164 -111.4767 10° North 404 465 31,000 780 Climbing Salt Lake Center
01:45PM 42.2514 -111.4464 North 408 470 31,900 480 Climbing Salt Lake Center
01:46PM 42.3594 -111.4461 360° North 384 442 32,000  Climbing Salt Lake Center
01:47PM 42.4617 -111.4661 355° North 374 430 32,000  Level Salt Lake Center
01:48PM 42.5280 -111.4661 355° North  Level FlightAware Approximate
01:48PM 42.5603 -111.4850 352° North 360 414 32,000  Level Salt Lake Center
01:49PM 42.6569 -111.5044 352° North 353 406 32,000  Level Salt Lake Center
01:50PM 42.7603 -111.5256 351° North 354 407 32,000  Level Salt Lake Center
01:51PM 42.8700 -111.5450 353° North 356 410 32,000  Level Salt Lake Center
01:52PM 42.9628 -111.5644 351° North 354 407 32,000  Level Salt Lake Center
01:54PM 43.1055 -111.5929 352° North  Level FlightAware Approximate
01:54PM 43.1658 -111.6056 352° North 355 409 32,000  Level Salt Lake Center
01:55PM 43.2767 -111.6269 352° North 358 412 32,000  Level Salt Lake Center
01:56PM 43.3706 -111.6472 351° North 357 411 32,000  Level Salt Lake Center
01:58PM 43.4650 -111.6656 352° North 359 413 32,000  Level Salt Lake Center
01:59PM 43.5758 -111.6881 352° North 359 413 32,000  Level Salt Lake Center
02:00PM 43.6706 -111.7061 352° North 358 412 32,000  Level Salt Lake Center
02:01PM 43.7811 -111.7294 351° North 358 412 32,000  Level Salt Lake Center
02:02PM 43.8756 -111.7494 351° North 358 412 32,000  Level Salt Lake Center
02:03PM 43.9878 -111.7725 352° North 362 417 32,000  Level Salt Lake Center
02:04PM 44.0836 -111.7922 352° North 364 419 32,000  Level Salt Lake Center
02:05PM 44.1944 -111.8147 352° North 360 414 32,000  Level Salt Lake Center
02:06PM 44.2906 -111.8347 352° North 362 417 32,000  Level Salt Lake Center
02:07PM 44.4025 -111.8572 352° North 362 417 32,000  Level Salt Lake Center
02:08PM 44.4997 -111.8772 352° North 364 419 32,000  Level Salt Lake Center
02:09PM 44.5964 -111.8986 351° North 364 419 32,000  Level Salt Lake Center
02:10PM 44.7078 -111.9219 352° North 362 417 32,000 -240 Level Salt Lake Center
02:11PM 44.8042 -111.9425 351° North 362 417 31,600 -1,020 Descending Salt Lake Center
02:12PM 44.9194 -111.9669 351° North 371 427 29,900 -1,560 Descending Salt Lake Center
02:13PM 45.0136 -111.9864 352° North 360 414 28,400 -1,500 Descending Salt Lake Center
02:14PM 45.1194 -112.0092 351° North 352 405 26,800 -1,500 Descending Salt Lake Center
02:15PM 45.2131 -112.0281 352° North 342 394 25,300 -1,500 Descending Salt Lake Center
02:16PM 45.3050 -112.0481 351° North 333 383 23,700 -1,500 Descending Salt Lake Center
02:17PM 45.3942 -112.0678 351° North 325 374 22,200 -1,500 Descending Salt Lake Center
02:18PM 45.4811 -112.0875 351° North 316 364 20,700 -1,500 Descending Salt Lake Center
02:19PM 45.5656 -112.1053 352° North 309 356 19,200 -1,500 Descending Salt Lake Center
02:20PM 45.6486 -112.1242 351° North 303 349 17,700 -1,500 Descending Salt Lake Center
02:21PM 45.7464 -112.1467 351° North 297 342 16,200 -1,500 Descending Salt Lake Center
02:22PM 45.8244 -112.1633 352° North 287 330 14,700 -1,080 Descending Salt Lake Center
02:23PM 45.9044 -112.1575 North 288 331 14,000 -360 Descending Salt Lake Center
02:24PM 45.9794 -112.1367 11° North 279 321 14,000  Level Salt Lake Center
02:25PM 46.0508 -112.1153 12° North 267 307 14,000 -60 Level Salt Lake Center
02:26PM 46.1236 -112.0953 11° North 265 305 13,900  Descending Salt Lake Center
02:27PM 46.1972 -112.0753 11° North 267 307 14,000  Climbing Salt Lake Center
02:29PM 46.2717 -112.0150 29° Northeast 271 312 14,000 -420 Level Salt Lake Center
02:30PM 46.2753 -111.9033 87° East 279 321 13,200 -780 Descending Salt Lake Center
02:32PM 46.4635 -111.9483 10° North  Level Estimated
02:39PM 46.6000 -111.9667 90° East  Level FlightAware Approximate